createdAt,value
2019-05-21T00:01:29.437Z,10.80
2019-05-21T00:03:58.316Z,10.80
2019-05-21T00:06:27.261Z,10.80
2019-05-21T00:08:56.158Z,10.80
2019-05-21T00:11:25.047Z,10.80
2019-05-21T00:13:53.983Z,10.80
2019-05-21T00:16:22.894Z,10.90
2019-05-21T00:18:51.889Z,10.90
2019-05-21T00:21:21.122Z,11.00
2019-05-21T00:23:50.232Z,11.00
2019-05-21T00:26:19.175Z,11.00
2019-05-21T00:29:24.422Z,11.00
2019-05-21T00:32:29.553Z,11.00
2019-05-21T00:35:45.662Z,11.00
2019-05-21T00:38:52.131Z,11.00
2019-05-21T00:41:58.134Z,11.00
2019-05-21T00:44:27.836Z,10.90
2019-05-21T00:46:56.930Z,11.00
2019-05-21T00:49:26.028Z,11.00
2019-05-21T00:52:06.561Z,10.90
2019-05-21T00:54:25.860Z,10.90
2019-05-21T00:56:55.363Z,11.00
2019-05-21T00:59:24.458Z,11.00
2019-05-21T01:01:54.579Z,10.90
2019-05-21T01:04:23.462Z,10.90
2019-05-21T01:06:52.438Z,10.90
2019-05-21T01:09:21.479Z,10.90
2019-05-21T01:11:50.363Z,10.90
2019-05-21T01:14:20.321Z,10.80
2019-05-21T01:16:49.264Z,10.90
2019-05-21T01:19:18.160Z,10.80
2019-05-21T01:21:47.065Z,10.90
2019-05-21T01:27:05.975Z,10.90
2019-05-21T01:29:34.927Z,10.90
2019-05-21T01:32:04.197Z,10.90
2019-05-21T01:34:33.427Z,10.80
2019-05-21T01:37:02.789Z,10.80
2019-05-21T01:39:31.714Z,10.90
2019-05-21T01:42:00.669Z,10.90
2019-05-21T01:44:29.871Z,10.90
2019-05-21T01:46:59.100Z,10.90
2019-05-21T01:49:39.776Z,11.00
2019-05-21T01:52:08.826Z,11.00
2019-05-21T01:54:37.921Z,11.00
2019-05-21T01:57:07.015Z,11.00
2019-05-21T01:59:36.112Z,11.00
2019-05-21T02:02:05.209Z,11.00
2019-05-21T02:04:34.510Z,11.10
2019-05-21T02:07:03.604Z,11.00
2019-05-21T02:09:34.289Z,11.00
2019-05-21T02:12:03.272Z,10.90
2019-05-21T02:14:32.727Z,10.80
2019-05-21T02:17:01.854Z,10.70
2019-05-21T02:19:31.129Z,10.60
2019-05-21T02:22:00.210Z,10.60
2019-05-21T02:24:29.313Z,10.60
2019-05-21T02:26:58.419Z,10.50
2019-05-21T02:29:27.528Z,10.40
2019-05-21T02:31:56.606Z,10.40
2019-05-21T02:34:25.706Z,10.40
2019-05-21T02:36:54.685Z,10.30
2019-05-21T02:39:24.184Z,10.30
2019-05-21T02:41:53.395Z,10.30
2019-05-21T02:44:22.485Z,10.40
2019-05-21T02:46:51.779Z,10.40
2019-05-21T02:49:21.301Z,10.30
2019-05-21T02:51:50.584Z,10.30
2019-05-21T02:54:19.677Z,10.20
2019-05-21T02:56:48.625Z,10.20
2019-05-21T02:59:17.563Z,10.10
2019-05-21T03:01:53.928Z,10.20
2019-05-21T03:04:23.026Z,10.20
2019-05-21T03:06:53.652Z,10.20
2019-05-21T03:09:22.853Z,10.10
2019-05-21T03:11:51.943Z,10.10
2019-05-21T03:14:21.047Z,10.10
2019-05-21T03:16:50.143Z,10.10
2019-05-21T03:19:19.237Z,10.00
2019-05-21T03:21:48.205Z,10.00
2019-05-21T03:24:17.075Z,9.90
2019-05-21T03:26:45.970Z,9.80
2019-05-21T03:29:14.890Z,9.80
2019-05-21T03:31:43.763Z,9.80
2019-05-21T03:34:12.682Z,9.70
2019-05-21T03:36:41.586Z,9.60
2019-05-21T03:39:10.460Z,9.70
2019-05-21T03:41:39.650Z,9.60
2019-05-21T03:44:08.535Z,9.60
2019-05-21T03:46:37.617Z,9.50
2019-05-21T03:49:06.605Z,9.50
2019-05-21T03:51:35.532Z,9.50
2019-05-21T03:54:04.479Z,9.50
2019-05-21T03:56:33.402Z,9.40
2019-05-21T03:59:02.301Z,9.40
2019-05-21T04:01:31.383Z,9.40
2019-05-21T04:04:00.545Z,9.40
2019-05-21T04:06:29.572Z,9.40
2019-05-21T04:08:58.563Z,9.40
2019-05-21T04:11:27.761Z,9.40
2019-05-21T04:13:56.929Z,9.40
2019-05-21T04:16:36.811Z,9.30
2019-05-21T04:19:10.206Z,9.40
2019-05-21T04:21:39.135Z,9.40
2019-05-21T04:24:09.263Z,9.40
2019-05-21T04:26:38.752Z,9.40
2019-05-21T04:29:07.808Z,9.40
2019-05-21T04:31:36.902Z,9.40
2019-05-21T04:34:06.005Z,9.50
2019-05-21T04:36:35.094Z,9.40
2019-05-21T04:39:05.173Z,9.40
2019-05-21T04:41:34.107Z,9.40
2019-05-21T04:44:03.012Z,9.40
2019-05-21T04:46:32.093Z,9.50
2019-05-21T04:49:01.384Z,9.40
2019-05-21T04:51:30.482Z,9.50
2019-05-21T04:53:59.576Z,9.50
2019-05-21T04:56:29.487Z,9.50
2019-05-21T04:58:58.584Z,9.50
2019-05-21T05:01:27.891Z,9.50
2019-05-21T05:03:56.775Z,9.50
2019-05-21T05:06:25.867Z,9.50
2019-05-21T05:08:54.964Z,9.50
2019-05-21T05:14:13.631Z,9.50
2019-05-21T05:16:42.739Z,9.50
2019-05-21T05:19:12.458Z,9.50
2019-05-21T05:21:41.544Z,9.50
2019-05-21T05:24:10.725Z,9.50
2019-05-21T05:26:40.132Z,9.50
2019-05-21T05:29:09.230Z,9.50
2019-05-21T05:31:38.529Z,9.50
2019-05-21T05:34:07.411Z,9.50
2019-05-21T05:36:36.472Z,9.50
2019-05-21T05:39:07.431Z,9.60
2019-05-21T05:41:36.303Z,9.60
2019-05-21T05:44:05.399Z,9.50
2019-05-21T05:46:34.883Z,9.60
2019-05-21T05:49:07.876Z,9.50
2019-05-21T05:51:37.016Z,9.50
2019-05-21T05:54:07.817Z,9.50
2019-05-21T05:56:36.507Z,9.50
2019-05-21T05:59:06.179Z,9.60
2019-05-21T06:01:35.367Z,9.60
2019-05-21T06:04:04.619Z,9.60
2019-05-21T06:06:33.542Z,9.60
2019-05-21T06:09:02.594Z,9.60
2019-05-21T06:11:31.487Z,9.60
2019-05-21T06:14:00.422Z,9.60
2019-05-21T06:16:29.365Z,9.60
2019-05-21T06:18:58.307Z,9.60
2019-05-21T06:21:27.249Z,9.60
2019-05-21T06:23:56.128Z,9.60
2019-05-21T06:26:33.178Z,9.60
2019-05-21T06:29:02.078Z,9.60
2019-05-21T06:31:30.983Z,9.60
2019-05-21T06:34:00.503Z,9.60
2019-05-21T06:36:29.432Z,9.60
2019-05-21T06:38:58.372Z,9.60
2019-05-21T06:41:27.313Z,9.60
2019-05-21T06:43:56.198Z,9.50
2019-05-21T06:46:25.151Z,9.50
2019-05-21T06:48:54.098Z,9.50
2019-05-21T06:51:23.179Z,9.50
2019-05-21T06:53:52.168Z,9.50
2019-05-21T06:56:21.269Z,9.50
2019-05-21T06:58:50.361Z,9.50
2019-05-21T07:01:27.524Z,9.50
2019-05-21T07:03:50.595Z,9.60
2019-05-21T07:06:19.691Z,9.60
2019-05-21T07:08:48.687Z,9.50
2019-05-21T07:11:17.794Z,9.60
2019-05-21T07:13:46.764Z,9.60
2019-05-21T07:16:16.211Z,9.60
2019-05-21T07:18:45.148Z,9.60
2019-05-21T07:21:14.268Z,9.60
2019-05-21T07:23:43.579Z,9.70
2019-05-21T07:26:12.654Z,9.70
2019-05-21T07:28:41.657Z,9.70
2019-05-21T07:31:10.744Z,9.70
2019-05-21T07:33:40.143Z,9.80
2019-05-21T07:36:09.867Z,9.80
2019-05-21T07:38:52.601Z,9.90
2019-05-21T07:41:10.089Z,9.90
2019-05-21T07:43:39.216Z,10.00
2019-05-21T07:46:08.499Z,10.00
2019-05-21T07:48:37.580Z,10.10
2019-05-21T07:51:06.884Z,10.10
2019-05-21T07:53:36.999Z,10.10
2019-05-21T07:56:05.990Z,10.10
2019-05-21T07:58:34.982Z,10.20
2019-05-21T08:01:04.500Z,10.20
2019-05-21T08:03:33.480Z,10.20
2019-05-21T08:06:02.573Z,10.20
2019-05-21T08:08:31.875Z,10.20
2019-05-21T08:11:00.866Z,10.30
2019-05-21T08:13:29.818Z,10.30
2019-05-21T08:15:58.752Z,10.40
2019-05-21T08:18:28.529Z,10.40
2019-05-21T08:20:57.917Z,10.50
2019-05-21T08:23:26.951Z,10.50
2019-05-21T08:25:56.049Z,10.60
2019-05-21T08:28:25.142Z,10.60
2019-05-21T08:30:54.346Z,10.70
2019-05-21T08:33:23.512Z,10.80
2019-05-21T08:35:52.688Z,11.00
2019-05-21T08:38:21.725Z,11.10
2019-05-21T08:40:50.718Z,11.20
2019-05-21T08:43:22.104Z,11.20
2019-05-21T08:45:51.062Z,11.40
2019-05-21T08:48:20.819Z,11.60
2019-05-21T08:50:50.696Z,11.60
2019-05-21T08:53:19.780Z,11.70
2019-05-21T08:55:49.079Z,11.80
2019-05-21T08:58:18.525Z,11.90
2019-05-21T09:00:48.284Z,12.00
2019-05-21T09:03:17.180Z,12.10
2019-05-21T09:05:46.421Z,12.30
2019-05-21T09:08:17.217Z,12.40
2019-05-21T09:10:46.200Z,12.60
2019-05-21T09:13:17.884Z,12.70
2019-05-21T09:15:45.835Z,13.00
2019-05-21T09:18:14.858Z,13.30
2019-05-21T09:20:44.176Z,13.50
2019-05-21T09:23:13.527Z,13.50
2019-05-21T09:25:42.516Z,13.50
2019-05-21T09:28:12.030Z,13.40
2019-05-21T09:30:41.196Z,13.20
2019-05-21T09:33:10.230Z,13.10
2019-05-21T09:35:39.887Z,13.20
2019-05-21T09:38:09.146Z,13.10
2019-05-21T09:40:38.318Z,13.00
2019-05-21T09:43:07.429Z,13.00
2019-05-21T09:45:36.516Z,13.00
2019-05-21T09:48:05.814Z,13.00
2019-05-21T09:50:35.102Z,12.80
2019-05-21T09:53:04.718Z,12.50
2019-05-21T09:55:34.318Z,12.50
2019-05-21T09:58:05.261Z,12.40
2019-05-21T10:00:50.530Z,12.40
2019-05-21T10:03:24.486Z,12.40
2019-05-21T10:05:53.631Z,12.40
2019-05-21T10:08:23.283Z,12.40
2019-05-21T10:10:52.521Z,12.40
2019-05-21T10:13:21.744Z,12.30
2019-05-21T10:15:50.829Z,12.40
2019-05-21T10:18:19.931Z,12.40
2019-05-21T10:20:49.428Z,12.40
2019-05-21T10:23:18.524Z,12.50
2019-05-21T10:25:47.618Z,12.40
2019-05-21T10:28:16.934Z,12.40
2019-05-21T10:30:46.217Z,12.30
2019-05-21T10:33:15.578Z,12.40
2019-05-21T10:35:44.824Z,12.50
2019-05-21T10:38:13.914Z,12.60
2019-05-21T10:40:43.225Z,12.70
2019-05-21T10:43:12.303Z,12.80
2019-05-21T10:45:41.424Z,13.00
2019-05-21T10:48:10.499Z,13.10
2019-05-21T10:50:40.513Z,13.20
2019-05-21T10:53:09.518Z,13.40
2019-05-21T10:55:38.503Z,13.40
2019-05-21T10:58:07.694Z,13.40
2019-05-21T11:00:37.616Z,13.50
2019-05-21T11:03:08.414Z,13.60
2019-05-21T11:05:39.459Z,13.60
2019-05-21T11:08:25.191Z,13.50
2019-05-21T11:10:39.520Z,13.40
2019-05-21T11:13:08.887Z,13.20
2019-05-21T11:15:38.415Z,13.10
2019-05-21T11:18:11.151Z,13.00
2019-05-21T11:20:38.152Z,13.10
2019-05-21T11:23:07.244Z,13.20
2019-05-21T11:25:36.342Z,13.30
2019-05-21T11:28:06.328Z,13.40
2019-05-21T11:30:35.960Z,13.30
2019-05-21T11:33:05.056Z,13.30
2019-05-21T11:35:36.116Z,13.40
2019-05-21T11:38:04.885Z,13.60
2019-05-21T11:40:34.190Z,14.00
2019-05-21T11:43:03.504Z,14.40
2019-05-21T11:45:33.172Z,14.60
2019-05-21T11:48:02.385Z,14.80
2019-05-21T11:50:31.587Z,15.10
2019-05-21T11:53:00.693Z,15.20
2019-05-21T11:55:29.782Z,15.20
2019-05-21T11:57:58.876Z,14.90
2019-05-21T12:00:29.311Z,14.50
2019-05-21T12:02:59.143Z,14.20
2019-05-21T12:05:28.207Z,13.80
2019-05-21T12:07:57.595Z,13.80
2019-05-21T12:10:26.806Z,13.60
2019-05-21T12:12:55.896Z,13.60
2019-05-21T12:15:24.994Z,13.40
2019-05-21T12:17:54.093Z,13.30
2019-05-21T12:20:36.408Z,13.20
2019-05-21T12:22:54.121Z,13.10
2019-05-21T12:25:23.059Z,13.10
2019-05-21T12:27:52.312Z,13.00
2019-05-21T12:30:21.814Z,13.00
2019-05-21T12:32:50.910Z,13.00
2019-05-21T12:35:20.915Z,13.10
2019-05-21T12:37:49.918Z,13.20
2019-05-21T12:40:19.830Z,13.30
2019-05-21T12:42:48.925Z,13.30
2019-05-21T12:45:18.050Z,13.40
2019-05-21T12:47:50.484Z,13.50
2019-05-21T12:50:18.321Z,13.60
2019-05-21T12:52:47.281Z,13.90
2019-05-21T12:55:16.305Z,14.00
2019-05-21T12:57:45.197Z,14.40
2019-05-21T13:00:15.029Z,14.80
2019-05-21T13:02:43.918Z,15.00
2019-05-21T13:05:13.265Z,15.10
2019-05-21T13:07:42.149Z,15.20
2019-05-21T13:10:11.582Z,15.20
2019-05-21T13:12:40.460Z,15.50
2019-05-21T13:15:09.958Z,15.70
2019-05-21T13:17:41.651Z,15.70
2019-05-21T13:20:11.095Z,15.60
2019-05-21T13:22:40.051Z,15.60
2019-05-21T13:25:10.214Z,15.80
2019-05-21T13:27:39.151Z,16.00
2019-05-21T13:30:08.998Z,16.00
2019-05-21T13:32:38.063Z,16.00
2019-05-21T13:35:07.843Z,16.00
2019-05-21T13:37:36.862Z,15.90
2019-05-21T13:40:08.405Z,15.60
2019-05-21T13:42:37.416Z,15.50
2019-05-21T13:45:08.380Z,15.20
2019-05-21T13:47:37.570Z,14.90
2019-05-21T13:50:09.033Z,14.80
2019-05-21T13:52:37.923Z,14.70
2019-05-21T13:55:09.364Z,14.50
2019-05-21T13:57:38.972Z,14.40
2019-05-21T14:00:12.402Z,14.20
2019-05-21T14:02:41.871Z,14.10
2019-05-21T14:05:11.582Z,14.10
2019-05-21T14:07:41.108Z,14.00
2019-05-21T14:10:16.078Z,14.00
2019-05-21T14:12:41.592Z,14.10
2019-05-21T14:15:11.466Z,14.10
2019-05-21T14:17:40.740Z,14.10
2019-05-21T14:20:12.506Z,14.20
2019-05-21T14:22:41.502Z,14.20
2019-05-21T14:25:10.792Z,14.40
2019-05-21T14:27:44.347Z,14.70
2019-05-21T14:30:11.021Z,14.90
2019-05-21T14:32:40.813Z,15.20
2019-05-21T14:35:11.235Z,15.80
2019-05-21T14:37:40.578Z,16.00
2019-05-21T14:40:11.415Z,16.00
2019-05-21T14:42:40.619Z,15.70
2019-05-21T14:45:10.211Z,15.50
2019-05-21T14:47:39.167Z,15.20
2019-05-21T14:50:09.454Z,14.90
2019-05-21T14:52:38.387Z,14.80
2019-05-21T14:55:11.323Z,14.80
2019-05-21T14:57:40.218Z,14.60
2019-05-21T15:00:14.496Z,14.50
2019-05-21T15:02:43.462Z,14.60
2019-05-21T15:05:14.012Z,14.40
2019-05-21T15:07:42.890Z,14.30
2019-05-21T15:10:12.234Z,14.20
2019-05-21T15:12:41.162Z,14.20
2019-05-21T15:15:10.662Z,14.10
2019-05-21T15:17:39.615Z,14.00
2019-05-21T15:20:17.903Z,13.90
2019-05-21T15:22:46.915Z,13.90
2019-05-21T15:25:15.897Z,13.90
2019-05-21T15:27:45.013Z,13.90
2019-05-21T15:30:14.435Z,14.10
2019-05-21T15:32:43.397Z,14.10
2019-05-21T15:35:12.825Z,14.10
2019-05-21T15:37:44.945Z,13.90
2019-05-21T15:40:14.670Z,13.80
2019-05-21T15:42:45.299Z,13.50
2019-05-21T15:45:14.698Z,13.30
2019-05-21T15:47:44.096Z,13.10
2019-05-21T15:50:14.091Z,13.10
2019-05-21T15:52:43.558Z,13.10
2019-05-21T15:55:12.755Z,13.10
2019-05-21T15:57:42.056Z,13.20
2019-05-21T16:00:13.051Z,13.20
2019-05-21T16:02:43.173Z,13.20
2019-05-21T16:05:12.881Z,13.30
2019-05-21T16:07:43.139Z,13.50
2019-05-21T16:10:12.354Z,13.80
2019-05-21T16:12:41.847Z,14.00
2019-05-21T16:15:11.613Z,14.40
2019-05-21T16:17:40.732Z,14.60
2019-05-21T16:20:10.614Z,14.80
2019-05-21T16:22:39.757Z,14.80
2019-05-21T16:25:10.095Z,14.90
2019-05-21T16:27:39.775Z,14.90
2019-05-21T16:30:09.473Z,14.80
2019-05-21T16:32:39.210Z,14.80
2019-05-21T16:35:09.269Z,15.20
2019-05-21T16:37:38.398Z,15.30
2019-05-21T16:40:08.780Z,15.30
2019-05-21T16:42:37.957Z,15.30
2019-05-21T16:45:08.022Z,15.50
2019-05-21T16:47:45.606Z,15.50
2019-05-21T16:50:08.749Z,15.20
2019-05-21T16:52:44.296Z,15.00
2019-05-21T16:55:14.020Z,14.80
2019-05-21T16:57:44.283Z,14.40
2019-05-21T17:00:15.661Z,14.20
2019-05-21T17:02:46.686Z,14.20
2019-05-21T17:05:15.710Z,14.10
2019-05-21T17:07:44.621Z,14.20
2019-05-21T17:10:15.154Z,14.00
2019-05-21T17:12:44.571Z,13.90
2019-05-21T17:15:14.814Z,13.80
2019-05-21T17:17:43.919Z,13.80
2019-05-21T17:20:13.270Z,13.80
2019-05-21T17:22:42.198Z,13.80
2019-05-21T17:25:11.668Z,14.00
2019-05-21T17:27:40.907Z,14.10
2019-05-21T17:30:11.087Z,14.20
2019-05-21T17:32:43.053Z,14.40
2019-05-21T17:35:12.342Z,14.40
2019-05-21T17:37:41.445Z,14.40
2019-05-21T17:40:11.256Z,14.50
2019-05-21T17:42:41.907Z,14.40
2019-05-21T17:45:11.411Z,14.30
2019-05-21T17:47:40.576Z,14.30
2019-05-21T17:50:10.195Z,14.20
2019-05-21T17:52:39.716Z,14.10
2019-05-21T17:55:09.969Z,14.00
2019-05-21T17:57:39.112Z,13.90
2019-05-21T18:00:11.237Z,13.80
2019-05-21T18:02:41.113Z,13.70
2019-05-21T18:05:11.733Z,13.60
2019-05-21T18:07:42.170Z,13.60
2019-05-21T18:10:12.792Z,13.60
2019-05-21T18:12:42.899Z,13.50
2019-05-21T18:15:13.107Z,13.40
2019-05-21T18:17:43.711Z,13.30
2019-05-21T18:20:15.381Z,13.30
2019-05-21T18:22:46.048Z,13.20
2019-05-21T18:25:15.354Z,13.20
2019-05-21T18:27:44.942Z,13.10
2019-05-21T18:30:15.022Z,13.20
2019-05-21T18:32:44.463Z,13.10
2019-05-21T18:35:15.220Z,13.20
2019-05-21T18:37:45.454Z,13.20
2019-05-21T18:40:16.518Z,13.20
2019-05-21T18:42:45.915Z,13.20
2019-05-21T18:45:15.676Z,13.20
2019-05-21T18:47:44.784Z,13.20
2019-05-21T18:50:14.476Z,13.30
2019-05-21T18:52:43.776Z,13.20
2019-05-21T18:55:13.804Z,13.20
2019-05-21T18:57:43.113Z,13.30
2019-05-21T19:00:12.912Z,13.10
2019-05-21T19:02:42.526Z,12.90
2019-05-21T19:05:11.791Z,12.80
2019-05-21T19:07:41.113Z,12.70
2019-05-21T19:10:11.228Z,12.60
2019-05-21T19:12:41.252Z,12.50
2019-05-21T19:15:11.371Z,12.40
2019-05-21T19:17:40.574Z,12.30
2019-05-21T19:20:10.038Z,12.30
2019-05-21T19:22:39.470Z,12.20
2019-05-21T19:25:09.798Z,12.10
2019-05-21T19:27:39.097Z,12.00
2019-05-21T19:30:09.315Z,11.90
2019-05-21T19:32:38.418Z,11.80
2019-05-21T19:35:07.922Z,11.70
2019-05-21T19:37:37.010Z,11.70
2019-05-21T19:40:07.125Z,11.60
2019-05-21T19:42:36.272Z,11.50
2019-05-21T19:45:08.961Z,11.50
2019-05-21T19:47:38.096Z,11.40
2019-05-21T19:50:08.627Z,11.40
2019-05-21T19:52:37.718Z,11.40
2019-05-21T19:55:08.029Z,11.40
2019-05-21T19:57:38.579Z,11.40
2019-05-21T20:00:09.350Z,11.40
2019-05-21T20:02:39.218Z,11.40
2019-05-21T20:05:09.950Z,11.40
2019-05-21T20:07:39.864Z,11.40
2019-05-21T20:10:09.886Z,11.40
2019-05-21T20:12:39.490Z,11.30
2019-05-21T20:15:09.350Z,11.30
2019-05-21T20:17:39.104Z,11.20
2019-05-21T20:20:10.415Z,11.10
2019-05-21T20:22:41.404Z,11.10
2019-05-21T20:25:11.947Z,11.00
2019-05-21T20:27:41.870Z,10.90
2019-05-21T20:30:13.344Z,10.80
2019-05-21T20:32:44.423Z,10.80
2019-05-21T20:35:15.675Z,10.70
2019-05-21T20:37:45.391Z,10.70
2019-05-21T20:40:16.015Z,10.80
2019-05-21T20:42:45.212Z,10.70
2019-05-21T20:45:15.944Z,10.70
2019-05-21T20:47:46.011Z,10.60
2019-05-21T20:50:17.091Z,10.60
2019-05-21T20:52:46.486Z,10.50
2019-05-21T20:55:17.452Z,10.40
2019-05-21T20:57:47.359Z,10.40
2019-05-21T21:00:23.826Z,10.40
2019-05-21T21:02:53.331Z,10.30
2019-05-21T21:05:22.638Z,10.30
2019-05-21T21:07:52.662Z,10.20
2019-05-21T21:10:22.672Z,10.20
2019-05-21T21:12:52.791Z,10.20
2019-05-21T21:15:22.091Z,10.20
2019-05-21T21:17:51.190Z,10.20
2019-05-21T21:20:20.482Z,10.30
2019-05-21T21:22:49.783Z,10.20
2019-05-21T21:25:24.326Z,10.20
2019-05-21T21:27:53.903Z,10.20
2019-05-21T21:30:23.002Z,10.10
2019-05-21T21:32:52.213Z,10.10
2019-05-21T21:35:21.854Z,10.10
2019-05-21T21:37:51.306Z,10.00
2019-05-21T21:40:21.835Z,10.00
2019-05-21T21:42:51.341Z,10.00
2019-05-21T21:45:20.852Z,10.00
2019-05-21T21:47:50.581Z,9.90
2019-05-21T21:50:19.652Z,9.90
2019-05-21T21:52:48.947Z,9.80
2019-05-21T21:55:18.465Z,9.80
2019-05-21T21:57:47.546Z,9.80
2019-05-21T22:00:28.315Z,9.70
2019-05-21T22:03:00.687Z,9.70
2019-05-21T22:05:30.571Z,9.70
2019-05-21T22:07:59.818Z,9.60
2019-05-21T22:10:48.251Z,9.50
2019-05-21T22:13:18.838Z,9.50
2019-05-21T22:15:48.243Z,9.50
2019-05-21T22:18:18.192Z,9.40
2019-05-21T22:20:47.592Z,9.40
2019-05-21T22:23:16.798Z,9.30
2019-05-21T22:25:46.103Z,9.30
2019-05-21T22:28:19.081Z,9.20
2019-05-21T22:30:49.810Z,9.20
2019-05-21T22:33:20.344Z,9.20
2019-05-21T22:35:49.646Z,9.20
2019-05-21T22:38:19.357Z,9.20
2019-05-21T22:40:48.595Z,9.10
2019-05-21T22:43:17.637Z,9.10
2019-05-21T22:45:46.766Z,9.10
2019-05-21T22:48:17.063Z,9.00
2019-05-21T22:50:47.238Z,9.00
2019-05-21T22:53:16.378Z,8.90
2019-05-21T22:55:45.468Z,8.90
2019-05-21T22:58:14.567Z,8.80
2019-05-21T23:00:44.291Z,8.80
2019-05-21T23:03:13.468Z,8.70
2019-05-21T23:05:42.639Z,8.70
2019-05-21T23:08:11.977Z,8.60
2019-05-21T23:10:41.366Z,8.60
2019-05-21T23:13:10.567Z,8.50
2019-05-21T23:15:40.277Z,8.40
2019-05-21T23:18:10.281Z,8.40
2019-05-21T23:20:40.606Z,8.30
2019-05-21T23:23:09.923Z,8.30
2019-05-21T23:25:41.465Z,8.20
2019-05-21T23:28:11.100Z,8.20
2019-05-21T23:30:40.058Z,8.20
2019-05-21T23:33:10.905Z,8.20
2019-05-21T23:35:40.765Z,8.20
2019-05-21T23:38:09.910Z,8.10
2019-05-21T23:40:39.219Z,8.00
2019-05-21T23:43:10.157Z,8.00
2019-05-21T23:45:39.653Z,7.90
2019-05-21T23:48:10.794Z,7.90
2019-05-21T23:50:40.089Z,7.70
2019-05-21T23:53:10.212Z,7.70
2019-05-21T23:55:39.328Z,7.70
2019-05-21T23:58:08.608Z,7.70
